Baxter, West Virginia
Current Conditions -  °F | °C
As of 12:53 AM on Friday 19 Dec 2014 (Local Time) from KMGW Reporting Station
Overcast Overcast  
Wind Chill: 22°   Ceiling: 1400
Heat Index: 27°   Visibility: 10mi
Dew Point: 20°   Wind: 5mph
Humidity: 75%   Direction: 230°SW
Pressure: 30.16"   Gusts: NA
Location:  39.54°N, 80.14°W
Report Text: KMGW 190553Z AUTO 23004KT 10SM OVC014 M03/M07 A3016 RMK AO2 SLP229 60000 T10281067 11022 21028 50002 TSNO
Loading
Personal Weather Stations






























Interactive Weather Map New forecast layout! Learn more

10-Day Weather Forecast

Advertisements
Track Severe Weather on mobile